UIBB 052030Z AUTO 09001MPS 9999 // NCD 12/12 Q1004 RMK QFE710/0947
QNH:(hPa/inHg/mmHg)1004 / 29.65 / 753
QFE:(hPa/inHg/mmHg)945 / 27.90 / 709
Temperature12
Dew Point12
Visibility> 10000
Weather
Cloud Cover
Transition Height900 m./4600 ft.
Transition LevelFL70
SQUAWK